ARG1608 SABE-SAZM
Flight info
| Callsign | ARG1608 |
|---|---|
| Flight time | 0h 45m |
| Altitude | 23000 |
| Route | PTA8 GBE W29 VOTRA VOTRA2Q |
| Aircraft | B738/M-SDFGHILORVW/S |
Departure
| Time | 2026-04-22 00:41 |
|---|---|
| Airport | Aeroparque Jorge Newbery (SABE) |
Arrival
| Time | 2026-04-22 01:26 |
|---|---|
| Airport | Ástor Piazzola International Airport (SAZM) |
| Time | Latitude | Longitude | Altitude | Speed | Heading |
|---|---|---|---|---|---|
| 2026-04-22 00:16 | -34.55791 | -58.41486 | 27 ft | 0 kts | 208° |
| 2026-04-22 00:34 | -34.55780 | -58.41478 | 27 ft | 2 kts | 208° |
| 2026-04-22 00:35 | -34.55767 | -58.41470 | 27 ft | 2 kts | 209° |
| 2026-04-22 00:35 | -34.55757 | -58.41456 | 27 ft | 2 kts | 250° |
| 2026-04-22 00:35 | -34.55755 | -58.41437 | 27 ft | 2 kts | 282° |
| 2026-04-22 00:35 | -34.55758 | -58.41428 | 27 ft | 1 kts | 301° |
| 2026-04-22 00:36 | -34.55761 | -58.41422 | 27 ft | 0 kts | 300° |
| 2026-04-22 00:37 | -34.55755 | -58.41434 | 27 ft | 4 kts | 296° |
| 2026-04-22 00:38 | -34.55730 | -58.41489 | 27 ft | 11 kts | 298° |
| 2026-04-22 00:38 | -34.55757 | -58.41577 | 27 ft | 12 kts | 217° |
| 2026-04-22 00:38 | -34.55759 | -58.41681 | 27 ft | 15 kts | 295° |
| 2026-04-22 00:38 | -34.55701 | -58.41806 | 27 ft | 17 kts | 303° |
| 2026-04-22 00:39 | -34.55622 | -58.41948 | 27 ft | 23 kts | 303° |
| 2026-04-22 00:39 | -34.55522 | -58.42117 | 27 ft | 25 kts | 306° |
| 2026-04-22 00:39 | -34.55425 | -58.42276 | 27 ft | 20 kts | 307° |
| 2026-04-22 00:39 | -34.55364 | -58.42387 | 27 ft | 13 kts | 287° |
| 2026-04-22 00:40 | -34.55363 | -58.42485 | 27 ft | 9 kts | 236° |
| 2026-04-22 00:40 | -34.55398 | -58.42503 | 27 ft | 7 kts | 154° |
| 2026-04-22 00:40 | -34.55479 | -58.42367 | 27 ft | 46 kts | 124° |
| 2026-04-22 00:40 | -34.55789 | -58.41813 | 27 ft | 112 kts | 124° |
| 2026-04-22 00:41 | -34.56330 | -58.40836 | 81 ft | 160 kts | 126° |
| 2026-04-22 00:41 | -34.56949 | -58.39683 | 604 ft | 168 kts | 124° |
| 2026-04-22 00:41 | -34.57551 | -58.38436 | 1193 ft | 175 kts | 112° |
| 2026-04-22 00:41 | -34.57558 | -58.36979 | 1678 ft | 182 kts | 65° |
| 2026-04-22 00:42 | -34.56687 | -58.35875 | 2170 ft | 187 kts | 31° |
| 2026-04-22 00:42 | -34.55555 | -58.35042 | 2615 ft | 201 kts | 28° |
| 2026-04-22 00:42 | -34.54281 | -58.34110 | 2969 ft | 226 kts | 32° |
| 2026-04-22 00:42 | -34.53069 | -58.32800 | 3468 ft | 247 kts | 53° |
| 2026-04-22 00:43 | -34.52417 | -58.30796 | 4013 ft | 265 kts | 84° |
| 2026-04-22 00:43 | -34.52629 | -58.28570 | 4827 ft | 269 kts | 107° |
| 2026-04-22 00:43 | -34.53178 | -58.26397 | 5544 ft | 277 kts | 107° |
| 2026-04-22 00:43 | -34.53731 | -58.24157 | 6398 ft | 280 kts | 110° |
| 2026-04-22 00:44 | -34.54659 | -58.22071 | 7198 ft | 284 kts | 131° |
| 2026-04-22 00:44 | -34.56197 | -58.20633 | 8039 ft | 285 kts | 157° |
| 2026-04-22 00:44 | -34.58102 | -58.20012 | 8950 ft | 284 kts | 175° |
| 2026-04-22 00:44 | -34.60051 | -58.20231 | 9771 ft | 286 kts | 194° |
| 2026-04-22 00:45 | -34.61998 | -58.20782 | 10421 ft | 297 kts | 193° |
| 2026-04-22 00:45 | -34.64140 | -58.21294 | 10642 ft | 324 kts | 191° |
| 2026-04-22 00:45 | -34.66402 | -58.21802 | 11275 ft | 334 kts | 191° |
| 2026-04-22 00:45 | -34.68682 | -58.22320 | 11984 ft | 342 kts | 191° |
| 2026-04-22 00:46 | -34.71042 | -58.22853 | 12816 ft | 346 kts | 191° |
| 2026-04-22 00:46 | -34.73415 | -58.23386 | 13630 ft | 349 kts | 192° |
| 2026-04-22 00:46 | -34.75782 | -58.23918 | 14433 ft | 353 kts | 192° |
| 2026-04-22 00:46 | -34.78229 | -58.24468 | 15240 ft | 356 kts | 192° |
| 2026-04-22 00:47 | -34.80651 | -58.25013 | 16014 ft | 360 kts | 193° |
| 2026-04-22 00:47 | -34.83102 | -58.25564 | 16760 ft | 364 kts | 193° |
| 2026-04-22 00:47 | -34.85606 | -58.26127 | 17493 ft | 367 kts | 193° |
| 2026-04-22 00:47 | -34.88126 | -58.26694 | 18199 ft | 370 kts | 194° |
| 2026-04-22 00:48 | -34.90653 | -58.27263 | 18939 ft | 372 kts | 194° |
| 2026-04-22 00:48 | -34.93198 | -58.27836 | 19638 ft | 374 kts | 194° |
| 2026-04-22 00:48 | -34.95758 | -58.28413 | 20311 ft | 376 kts | 193° |
| 2026-04-22 00:48 | -34.98337 | -58.28995 | 21040 ft | 376 kts | 193° |
| 2026-04-22 00:49 | -35.00856 | -58.29562 | 21916 ft | 371 kts | 193° |
| 2026-04-22 00:49 | -35.03377 | -58.30131 | 22626 ft | 371 kts | 193° |
| 2026-04-22 00:49 | -35.05930 | -58.30708 | 23000 ft | 371 kts | 193° |
| 2026-04-22 00:49 | -35.08482 | -58.31286 | 23018 ft | 371 kts | 193° |
| 2026-04-22 00:50 | -35.11008 | -58.31856 | 23020 ft | 369 kts | 193° |
| 2026-04-22 00:50 | -35.13526 | -58.32426 | 23020 ft | 368 kts | 193° |
| 2026-04-22 00:50 | -35.16012 | -58.32989 | 23020 ft | 368 kts | 193° |
| 2026-04-22 00:50 | -35.18556 | -58.33566 | 23020 ft | 368 kts | 193° |
| 2026-04-22 00:51 | -35.21058 | -58.34133 | 23020 ft | 368 kts | 193° |
| 2026-04-22 00:51 | -35.23584 | -58.34707 | 23020 ft | 368 kts | 193° |
| 2026-04-22 00:51 | -35.26103 | -58.35278 | 23020 ft | 368 kts | 193° |
| 2026-04-22 00:51 | -35.28602 | -58.35846 | 23020 ft | 368 kts | 193° |
| 2026-04-22 00:52 | -35.31149 | -58.36425 | 23020 ft | 368 kts | 193° |
| 2026-04-22 00:52 | -35.33712 | -58.36669 | 23018 ft | 373 kts | 179° |
| 2026-04-22 00:52 | -35.36275 | -58.36185 | 23022 ft | 376 kts | 172° |
| 2026-04-22 00:52 | -35.38855 | -58.35578 | 23016 ft | 376 kts | 173° |
| 2026-04-22 00:53 | -35.41423 | -58.35063 | 23012 ft | 375 kts | 174° |
| 2026-04-22 00:53 | -35.44000 | -58.34568 | 23009 ft | 375 kts | 174° |
| 2026-04-22 00:53 | -35.46588 | -58.34063 | 23004 ft | 375 kts | 174° |
| 2026-04-22 00:53 | -35.49175 | -58.33559 | 23000 ft | 375 kts | 174° |
| 2026-04-22 00:54 | -35.51754 | -58.33062 | 22995 ft | 376 kts | 174° |
| 2026-04-22 00:54 | -35.54337 | -58.32565 | 22994 ft | 376 kts | 174° |
| 2026-04-22 00:54 | -35.56921 | -58.32068 | 22993 ft | 375 kts | 174° |
| 2026-04-22 00:54 | -35.59483 | -58.31576 | 22993 ft | 375 kts | 174° |
| 2026-04-22 00:55 | -35.62051 | -58.31084 | 22993 ft | 375 kts | 174° |
| 2026-04-22 00:55 | -35.64635 | -58.30589 | 22993 ft | 375 kts | 174° |
| 2026-04-22 00:55 | -35.69835 | -58.29591 | 22993 ft | 375 kts | 174° |
| 2026-04-22 00:56 | -35.72379 | -58.29103 | 22993 ft | 375 kts | 174° |
| 2026-04-22 00:56 | -35.74958 | -58.28608 | 22993 ft | 375 kts | 174° |
| 2026-04-22 00:56 | -35.77536 | -58.28112 | 22993 ft | 375 kts | 174° |
| 2026-04-22 00:56 | -35.80107 | -58.27618 | 22993 ft | 375 kts | 174° |
| 2026-04-22 00:57 | -35.82715 | -58.27117 | 22993 ft | 375 kts | 174° |
| 2026-04-22 00:57 | -35.85256 | -58.26628 | 22993 ft | 375 kts | 174° |
| 2026-04-22 00:57 | -35.87836 | -58.26131 | 22993 ft | 375 kts | 174° |
| 2026-04-22 00:57 | -35.90443 | -58.25629 | 22993 ft | 375 kts | 174° |
| 2026-04-22 00:58 | -35.93011 | -58.25134 | 22993 ft | 375 kts | 174° |
| 2026-04-22 00:58 | -35.95587 | -58.24637 | 22993 ft | 375 kts | 174° |
| 2026-04-22 00:58 | -35.98136 | -58.24145 | 22993 ft | 375 kts | 174° |
| 2026-04-22 00:58 | -36.00705 | -58.23649 | 22993 ft | 375 kts | 174° |
| 2026-04-22 00:59 | -36.03320 | -58.23143 | 22993 ft | 375 kts | 174° |
| 2026-04-22 00:59 | -36.05875 | -58.22649 | 22993 ft | 375 kts | 174° |
| 2026-04-22 00:59 | -36.08460 | -58.22149 | 22993 ft | 375 kts | 174° |
| 2026-04-22 00:59 | -36.11008 | -58.21656 | 22993 ft | 375 kts | 174° |
| 2026-04-22 01:00 | -36.13612 | -58.21151 | 22993 ft | 375 kts | 174° |
| 2026-04-22 01:00 | -36.16179 | -58.20653 | 22993 ft | 375 kts | 174° |
| 2026-04-22 01:00 | -36.18784 | -58.20147 | 22993 ft | 375 kts | 174° |
| 2026-04-22 01:00 | -36.21349 | -58.19649 | 22993 ft | 375 kts | 174° |
| 2026-04-22 01:01 | -36.23931 | -58.19147 | 22993 ft | 375 kts | 174° |
| 2026-04-22 01:01 | -36.26493 | -58.18649 | 22993 ft | 374 kts | 174° |
| 2026-04-22 01:01 | -36.29104 | -58.18141 | 22993 ft | 374 kts | 174° |
| 2026-04-22 01:01 | -36.31656 | -58.17644 | 22993 ft | 374 kts | 174° |
| 2026-04-22 01:02 | -36.34211 | -58.17146 | 22993 ft | 374 kts | 174° |
| 2026-04-22 01:02 | -36.36806 | -58.16640 | 22993 ft | 374 kts | 174° |
| 2026-04-22 01:02 | -36.39359 | -58.16143 | 22993 ft | 374 kts | 174° |
| 2026-04-22 01:02 | -36.41947 | -58.15637 | 22993 ft | 374 kts | 174° |
| 2026-04-22 01:03 | -36.44493 | -58.15140 | 22993 ft | 374 kts | 174° |
| 2026-04-22 01:03 | -36.46485 | -58.14751 | 22993 ft | 374 kts | 174° |
| 2026-04-22 01:03 | -36.49076 | -58.14244 | 22964 ft | 374 kts | 174° |
| 2026-04-22 01:03 | -36.51629 | -58.13744 | 22966 ft | 374 kts | 174° |
| 2026-04-22 01:04 | -36.54207 | -58.13239 | 22966 ft | 374 kts | 174° |
| 2026-04-22 01:04 | -36.56802 | -58.12730 | 22966 ft | 374 kts | 174° |
| 2026-04-22 01:04 | -36.59370 | -58.12227 | 22966 ft | 374 kts | 174° |
| 2026-04-22 01:04 | -36.61936 | -58.11724 | 22966 ft | 374 kts | 174° |
| 2026-04-22 01:05 | -36.64513 | -58.11218 | 22966 ft | 374 kts | 174° |
| 2026-04-22 01:05 | -36.67072 | -58.10714 | 22966 ft | 374 kts | 174° |
| 2026-04-22 01:05 | -36.69638 | -58.10210 | 22966 ft | 374 kts | 174° |
| 2026-04-22 01:05 | -36.72201 | -58.09705 | 22938 ft | 372 kts | 174° |
| 2026-04-22 01:06 | -36.74727 | -58.09206 | 22598 ft | 362 kts | 174° |
| 2026-04-22 01:06 | -36.77171 | -58.08723 | 22160 ft | 356 kts | 174° |
| 2026-04-22 01:06 | -36.79602 | -58.08244 | 21692 ft | 351 kts | 174° |
| 2026-04-22 01:06 | -36.82014 | -58.07769 | 21224 ft | 346 kts | 174° |
| 2026-04-22 01:07 | -36.83763 | -58.07423 | 20885 ft | 343 kts | 174° |
| 2026-04-22 01:07 | -36.86104 | -58.06961 | 20428 ft | 338 kts | 174° |
| 2026-04-22 01:07 | -36.88429 | -58.06502 | 19977 ft | 338 kts | 174° |
| 2026-04-22 01:07 | -36.90759 | -58.06043 | 19518 ft | 339 kts | 174° |
| 2026-04-22 01:08 | -36.93059 | -58.05588 | 19065 ft | 334 kts | 173° |
| 2026-04-22 01:08 | -36.95347 | -58.05134 | 18615 ft | 328 kts | 173° |
| 2026-04-22 01:08 | -36.97615 | -58.04691 | 18174 ft | 330 kts | 174° |
| 2026-04-22 01:08 | -36.99882 | -58.04263 | 17723 ft | 328 kts | 173° |
| 2026-04-22 01:09 | -37.01670 | -58.03907 | 17369 ft | 322 kts | 173° |
| 2026-04-22 01:09 | -37.03887 | -58.03450 | 16937 ft | 324 kts | 173° |
| 2026-04-22 01:09 | -37.06126 | -58.02993 | 16489 ft | 325 kts | 173° |
| 2026-04-22 01:09 | -37.08349 | -58.02529 | 16032 ft | 321 kts | 172° |
| 2026-04-22 01:10 | -37.10527 | -58.02037 | 15597 ft | 316 kts | 172° |
| 2026-04-22 01:10 | -37.12668 | -58.01519 | 15180 ft | 319 kts | 172° |
| 2026-04-22 01:10 | -37.14865 | -58.01027 | 14738 ft | 318 kts | 172° |
| 2026-04-22 01:10 | -37.17013 | -58.00560 | 14309 ft | 314 kts | 172° |
| 2026-04-22 01:11 | -37.19151 | -58.00084 | 13883 ft | 310 kts | 172° |
| 2026-04-22 01:11 | -37.21266 | -57.99611 | 13460 ft | 306 kts | 172° |
| 2026-04-22 01:11 | -37.23380 | -57.99139 | 13042 ft | 310 kts | 172° |
| 2026-04-22 01:11 | -37.25522 | -57.98659 | 12606 ft | 307 kts | 172° |
| 2026-04-22 01:12 | -37.27604 | -57.98191 | 12186 ft | 303 kts | 172° |
| 2026-04-22 01:12 | -37.29681 | -57.97725 | 11767 ft | 300 kts | 172° |
| 2026-04-22 01:12 | -37.31711 | -57.97268 | 11357 ft | 296 kts | 172° |
| 2026-04-22 01:12 | -37.33749 | -57.96810 | 10945 ft | 293 kts | 171° |
| 2026-04-22 01:13 | -37.35757 | -57.96359 | 10540 ft | 297 kts | 171° |
| 2026-04-22 01:13 | -37.37781 | -57.95902 | 10231 ft | 289 kts | 171° |
| 2026-04-22 01:13 | -37.39722 | -57.95464 | 10066 ft | 277 kts | 171° |
| 2026-04-22 01:13 | -37.41577 | -57.95046 | 9781 ft | 271 kts | 171° |
| 2026-04-22 01:14 | -37.43440 | -57.94626 | 9433 ft | 268 kts | 171° |
| 2026-04-22 01:14 | -37.44868 | -57.94304 | 9171 ft | 265 kts | 171° |
| 2026-04-22 01:14 | -37.46670 | -57.93897 | 8844 ft | 261 kts | 171° |
| 2026-04-22 01:14 | -37.48403 | -57.93506 | 8529 ft | 258 kts | 171° |
| 2026-04-22 01:15 | -37.49836 | -57.93182 | 8270 ft | 255 kts | 171° |
| 2026-04-22 01:15 | -37.51586 | -57.92786 | 7952 ft | 252 kts | 170° |
| 2026-04-22 01:15 | -37.53319 | -57.92395 | 7638 ft | 257 kts | 170° |
| 2026-04-22 01:15 | -37.55070 | -57.91999 | 7312 ft | 254 kts | 170° |
| 2026-04-22 01:16 | -37.56799 | -57.91607 | 6995 ft | 251 kts | 170° |
| 2026-04-22 01:16 | -37.58514 | -57.91219 | 6681 ft | 248 kts | 169° |
| 2026-04-22 01:16 | -37.60193 | -57.90838 | 6376 ft | 249 kts | 169° |
| 2026-04-22 01:16 | -37.61908 | -57.90449 | 6059 ft | 250 kts | 169° |
| 2026-04-22 01:17 | -37.63620 | -57.90061 | 5742 ft | 247 kts | 169° |
| 2026-04-22 01:17 | -37.65283 | -57.89684 | 5447 ft | 242 kts | 169° |
| 2026-04-22 01:17 | -37.66915 | -57.89314 | 5126 ft | 235 kts | 169° |
| 2026-04-22 01:17 | -37.68500 | -57.88954 | 4832 ft | 227 kts | 168° |
| 2026-04-22 01:18 | -37.70021 | -57.88608 | 4552 ft | 221 kts | 168° |
| 2026-04-22 01:18 | -37.71511 | -57.88269 | 4315 ft | 212 kts | 168° |
| 2026-04-22 01:18 | -37.72921 | -57.87949 | 4216 ft | 198 kts | 168° |
| 2026-04-22 01:18 | -37.74228 | -57.87652 | 4160 ft | 185 kts | 168° |
| 2026-04-22 01:19 | -37.75503 | -57.87361 | 4100 ft | 185 kts | 168° |
| 2026-04-22 01:19 | -37.76778 | -57.87071 | 4018 ft | 187 kts | 168° |
| 2026-04-22 01:19 | -37.78039 | -57.86716 | 3893 ft | 185 kts | 155° |
| 2026-04-22 01:19 | -37.78967 | -57.85650 | 3732 ft | 184 kts | 121° |
| 2026-04-22 01:20 | -37.79622 | -57.84274 | 3533 ft | 184 kts | 125° |
| 2026-04-22 01:20 | -37.80337 | -57.82946 | 3338 ft | 182 kts | 123° |
| 2026-04-22 01:20 | -37.81036 | -57.81594 | 3147 ft | 181 kts | 123° |
| 2026-04-22 01:20 | -37.81709 | -57.80282 | 3062 ft | 179 kts | 123° |
| 2026-04-22 01:21 | -37.82391 | -57.78950 | 3015 ft | 181 kts | 123° |
| 2026-04-22 01:21 | -37.83076 | -57.77611 | 2967 ft | 176 kts | 123° |
| 2026-04-22 01:21 | -37.83702 | -57.76388 | 2902 ft | 159 kts | 122° |
| 2026-04-22 01:21 | -37.84306 | -57.75207 | 2791 ft | 160 kts | 122° |
| 2026-04-22 01:22 | -37.84911 | -57.74024 | 2676 ft | 159 kts | 122° |
| 2026-04-22 01:22 | -37.85510 | -57.72850 | 2555 ft | 159 kts | 122° |
| 2026-04-22 01:22 | -37.86109 | -57.71676 | 2398 ft | 158 kts | 122° |
| 2026-04-22 01:22 | -37.86711 | -57.70496 | 2277 ft | 154 kts | 122° |
| 2026-04-22 01:23 | -37.87277 | -57.69389 | 2108 ft | 147 kts | 122° |
| 2026-04-22 01:23 | -37.87820 | -57.68325 | 1933 ft | 144 kts | 122° |
| 2026-04-22 01:23 | -37.88359 | -57.67268 | 1726 ft | 140 kts | 121° |
| 2026-04-22 01:23 | -37.88882 | -57.66242 | 1541 ft | 140 kts | 121° |
| 2026-04-22 01:24 | -37.89409 | -57.65207 | 1352 ft | 139 kts | 121° |
| 2026-04-22 01:24 | -37.89936 | -57.64173 | 1164 ft | 139 kts | 121° |
| 2026-04-22 01:24 | -37.90464 | -57.63136 | 974 ft | 139 kts | 121° |
| 2026-04-22 01:24 | -37.90988 | -57.62107 | 787 ft | 139 kts | 121° |
| 2026-04-22 01:25 | -37.91505 | -57.61092 | 603 ft | 138 kts | 120° |
| 2026-04-22 01:25 | -37.92028 | -57.60064 | 417 ft | 138 kts | 120° |
| 2026-04-22 01:25 | -37.92551 | -57.59046 | 230 ft | 137 kts | 120° |
| 2026-04-22 01:25 | -37.93056 | -57.58047 | 73 ft | 127 kts | 120° |
| 2026-04-22 01:26 | -37.93455 | -57.57256 | 56 ft | 72 kts | 123° |
| 2026-04-22 01:26 | -37.93684 | -57.56804 | 55 ft | 55 kts | 123° |
| 2026-04-22 01:26 | -37.93860 | -57.56460 | 55 ft | 33 kts | 123° |
| 2026-04-22 01:26 | -37.93961 | -57.56323 | 55 ft | 14 kts | 195° |
| 2026-04-22 01:27 | -37.94015 | -57.56415 | 55 ft | 12 kts | 242° |
| 2026-04-22 01:27 | -37.94030 | -57.56507 | 57 ft | 7 kts | 291° |
| 2026-04-22 01:27 | -37.94003 | -57.56573 | 55 ft | 9 kts | 299° |
| 2026-04-22 01:27 | -37.93965 | -57.56660 | 55 ft | 13 kts | 300° |
| 2026-04-22 01:28 | -37.93914 | -57.56772 | 55 ft | 16 kts | 300° |
| 2026-04-22 01:28 | -37.93856 | -57.56903 | 55 ft | 18 kts | 300° |
| 2026-04-22 01:28 | -37.93787 | -57.57055 | 55 ft | 21 kts | 301° |
| 2026-04-22 01:28 | -37.93706 | -57.57223 | 57 ft | 20 kts | 294° |
| 2026-04-22 01:29 | -37.93646 | -57.57379 | 59 ft | 19 kts | 299° |
| 2026-04-22 01:29 | -37.93578 | -57.57534 | 59 ft | 20 kts | 297° |
| 2026-04-22 01:29 | -37.93508 | -57.57690 | 62 ft | 20 kts | 301° |
| 2026-04-22 01:29 | -37.93434 | -57.57854 | 62 ft | 22 kts | 300° |
| 2026-04-22 01:30 | -37.93397 | -57.57937 | 64 ft | 5 kts | 300° |
| 2026-04-22 01:30 | -37.93370 | -57.57996 | 65 ft | 9 kts | 304° |
| 2026-04-22 01:30 | -37.93335 | -57.58052 | 65 ft | 5 kts | 298° |
| 2026-04-22 01:30 | -37.93326 | -57.58074 | 65 ft | 1 kts | 298° |
| 2026-04-22 01:31 | -37.93323 | -57.58081 | 65 ft | 0 kts | 298° |